Buoy 41580

sailwx.info

Track history (hours):
 
Tides and Currents Weather Stations Pressure Air Temp Water Temp Dewpoint Dewpoint Depression Visibility Wind Speed Wind Dir Waves Ship Positions

Drifting buoy 41580

Last reported at 2015-Feb-28 20:00 UTC. Time now 2015-Feb-28 23:03 UTC.
Position N 17°00' W 044°11'.

Barometer 1017.4 mb
Water temperature 24.6 ° C

Date/timePositionNaut miles runAvg speedWind from/ knotsBaromVisibWave heightAir tempDewpointWater temp
2015-Feb-28 20:00N 17°00' W 044°11'1 0.5 1017.4 24.6
2015-Feb-28 19:00N 16°60' W 044°11'1 0.6 1017.2 24.6
2015-Feb-28 17:00N 17°01' W 044°11'0 0.0 1017.8 24.7
2015-Feb-28 16:00N 17°01' W 044°11'0 0.1 1018.5 24.7
2015-Feb-28 15:00N 17°01' W 044°11'2 1.0 1019.0 24.6
2015-Feb-28 13:00N 17°02' W 044°10'2 1.5 1019.5 24.6
2015-Feb-28 12:00N 17°04' W 044°10'0 0.0 1019.1 24.6
2015-Feb-28 11:00N 17°04' W 044°10'1 0.4 1018.5 24.6
2015-Feb-28 08:00N 17°05' W 044°10'0 0.1 1016.7 24.6
2015-Feb-28 06:00N 17°05' W 044°10'0 0.0 1016.3 24.6
2015-Feb-28 04:00N 17°05' W 044°10'4 1.3 1016.8 24.6
2015-Feb-28 01:00N 17°07' W 044°06'1 0.9 1017.6 24.6
2015-Feb-28 00:00N 17°06' W 044°07'0 0.0 1017.7 24.6
2015-Feb-27 23:00N 17°06' W 044°07'2 0.9 1017.6 24.6
2015-Feb-27 21:00N 17°07' W 044°05'3 0.5 1016.6 24.7
2015-Feb-27 16:00N 17°07' W 044°02'0 0.2 1017.0 24.7
2015-Feb-27 13:00N 17°06' W 044°02'1 0.5 1018.0 24.6
2015-Feb-27 11:00N 17°06' W 044°02'0 0.0 1017.5 24.6
2015-Feb-27 10:00N 17°06' W 044°02'1 0.3 1017.5 24.6
2015-Feb-27 08:00N 17°05' W 044°01'1 0.7 1016.0 24.6
2015-Feb-27 06:00N 17°05' W 043°59'0 0.0 1016.2 24.6
2015-Feb-27 05:00N 17°05' W 043°59'0 0.0 1016.6 24.6
2015-Feb-27 01:00N 17°05' W 043°59'2 0.3 1018.3 24.7
2015-Feb-26 18:00N 17°04' W 043°58'2 1.1 1017.0 24.8
2015-Feb-26 16:00N 17°02' W 043°57'2 0.6 1018.2 24.7
2015-Feb-26 12:00N 17°00' W 043°59'0 0.0 1019.7 24.6
2015-Feb-26 11:00N 17°00' W 043°59'1 0.2 1019.5 24.6
2015-Feb-26 08:00N 16°59' W 043°59'2 0.8 1018.5 24.6
2015-Feb-26 06:00N 16°58' W 043°59'0 0.0 1018.7 24.6
2015-Feb-26 05:00N 16°58' W 043°59'0 0.0 1018.9 24.6
2015-Feb-26 04:00N 16°58' W 043°59'2 0.3 1019.3 24.6
2015-Feb-25 23:00N 16°57' W 043°58'2 1.9 1019.7 24.7
2015-Feb-25 22:00N 16°56' W 043°59'1 0.6 1019.2 24.7
2015-Feb-25 20:00N 16°56' W 043°58'4 2.1 1018.4 24.8
2015-Feb-25 18:00N 16°54' W 044°02'0 0.0 1018.2 24.8
2015-Feb-25 17:00N 16°54' W 044°02'2 0.3 1019.0 24.8
2015-Feb-25 11:00N 16°53' W 044°04'0 0.2 1019.9 24.6
2015-Feb-25 09:00N 16°54' W 044°04'1 0.3 1019.0 24.6
2015-Feb-25 07:00N 16°54' W 044°05'1 1.2 1017.9 24.6
2015-Feb-25 06:00N 16°55' W 044°04'0 0.0 1018.1 24.6
2015-Feb-25 05:00N 16°55' W 044°04'1 0.7 1018.5 24.6
2015-Feb-25 03:00N 16°54' W 044°05'2 0.6 1019.7 24.6
2015-Feb-25 00:00N 16°53' W 044°06'0 0.0 1020.1 24.7
2015-Feb-24 23:00N 16°53' W 044°06'1 0.2 1019.5 24.7
2015-Feb-24 20:00N 16°52' W 044°07'1 1.0 1017.6 24.8
2015-Feb-24 19:00N 16°52' W 044°06'2 1.6 1017.2 24.8
2015-Feb-24 18:00N 16°52' W 044°07'3 2.5 1017.3 24.8
2015-Feb-24 17:00N 16°50' W 044°09'0 0.0 1017.6 24.8
2015-Feb-24 15:00N 16°50' W 044°09'0 0.0 1019.1 24.7
2015-Feb-24 13:00N 16°50' W 044°09'0 0.3 1019.5 24.7
2015-Feb-24 12:00N 16°50' W 044°10'1 0.5 1019.2 24.6
2015-Feb-24 09:00N 16°50' W 044°11'1 0.5 1017.3 24.6
2015-Feb-24 07:00N 16°51' W 044°11'0 0.0 1016.9 24.6
2015-Feb-24 05:00N 16°51' W 044°11'1 0.6 1017.4 24.6
2015-Feb-24 04:00N 16°52' W 044°11'1 0.5 1017.8 24.6
2015-Feb-24 03:00N 16°51' W 044°11'1 0.3 1018.2 24.6
2015-Feb-24 01:00N 16°52' W 044°11'1 0.7 1018.4 24.6
2015-Feb-23 23:00N 16°51' W 044°12'0 0.0 1017.7 24.7
2015-Feb-23 21:00N 16°51' W 044°12'0 0.3 1016.6 24.7
2015-Feb-23 20:00N 16°51' W 044°12'1 0.2 1016.3 24.7
2015-Feb-23 17:00N 16°51' W 044°13'3 2.6 1016.5 24.7
2015-Feb-23 16:00N 16°48' W 044°14'1 1.3 1017.3 24.7
2015-Feb-23 15:00N 16°50' W 044°14'0 0.0 1017.9 24.7
2015-Feb-23 13:00N 16°50' W 044°14'1 0.7 1018.8 24.6
2015-Feb-23 12:00N 16°50' W 044°15'1 1.1 1018.4 24.6
2015-Feb-23 11:00N 16°51' W 044°14'1 0.5 1018.1 24.6
2015-Feb-23 09:00N 16°51' W 044°16'1 0.3 1017.1 24.6
2015-Feb-23 07:00N 16°51' W 044°15'0 0.0 1016.8 24.6
2015-Feb-23 06:00N 16°51' W 044°15'0 0.4 1016.9 24.6
2015-Feb-23 05:00N 16°51' W 044°15'1 0.6 1017.3 24.6
2015-Feb-23 04:00N 16°51' W 044°15'1 0.2 1017.8 24.6
2015-Feb-23 00:00N 16°52' W 044°15'1 0.7 1018.1 24.6
2015-Feb-22 22:00N 16°51' W 044°17'0 0.0 1017.0 24.7
2015-Feb-22 21:00N 16°51' W 044°17'1 0.9 1016.6 24.7
2015-Feb-22 20:00N 16°50' W 044°16'2 0.6 1016.3 24.7
2015-Feb-22 17:00N 16°51' W 044°17'1 0.5 1016.7 24.7
2015-Feb-22 15:00N 16°52' W 044°17'1 0.4 1018.1 24.6
2015-Feb-22 13:00N 16°52' W 044°16'0 0.0 1018.9 24.6
2015-Feb-22 12:00N 16°52' W 044°16'1 0.4 1018.6 24.6
2015-Feb-22 09:00N 16°53' W 044°15'1 0.3 1017.7 24.5
2015-Feb-22 06:00N 16°54' W 044°16'1 0.6 1017.8 24.6
2015-Feb-22 04:00N 16°53' W 044°16'0 0.0 1018.8 24.6
2015-Feb-22 03:00N 16°53' W 044°16'0 0.0 1019.2 24.6
2015-Feb-22 01:00N 16°53' W 044°16'0 0.0 1019.4 24.6
2015-Feb-22 00:00N 16°53' W 044°16'1 0.1 1019.4 24.6
2015-Feb-21 12:00N 16°53' W 044°15'1 0.4 1020.8 24.6
2015-Feb-21 09:00N 16°54' W 044°14'0 0.2 1019.2 24.6
2015-Feb-21 06:00N 16°54' W 044°15'1 1.3 1019.0 24.6
2015-Feb-21 05:00N 16°55' W 044°14'0 0.1 1019.6 24.6
2015-Feb-20 23:00N 16°55' W 044°14'1 0.1 1020.1 24.7
2015-Feb-20 16:00N 16°55' W 044°13'2 0.5 1019.3 24.7
2015-Feb-20 12:00N 16°56' W 044°12'0 0.1 1020.2 24.6
2015-Feb-20 06:00N 16°56' W 044°11'2 0.2 1017.9 24.6
2015-Feb-19 19:00N 16°58' W 044°09'2 0.8 1016.5 24.7
2015-Feb-19 17:00N 16°59' W 044°08'1 1.1 1017.0 24.8
2015-Feb-19 16:00N 16°60' W 044°07'1 1.1 1017.8 24.7
2015-Feb-19 15:00N 16°59' W 044°08'1 0.6 1018.3 24.7
2015-Feb-19 13:00N 16°60' W 044°07'1 1.0 1018.9 24.7
2015-Feb-19 12:00N 16°60' W 044°06'1 0.3 1018.5 24.7
2015-Feb-19 08:00N 17°00' W 044°05'2 0.4 1016.4 24.6
2015-Feb-19 04:00N 17°01' W 044°03'2 0.6 1018.1 24.7
2015-Feb-19 00:00N 17°03' W 044°02'0 0.0 1018.4 24.7
2015-Feb-18 23:00N 17°03' W 044°02'   1017.9 24.7
Track history (hours):
 
Tides and Currents Weather Stations Pressure Air Temp Water Temp Dewpoint Dewpoint Depression Visibility Wind Speed Wind Dir Waves Ship Positions

Drifting buoy 41580

Last reported at 2015-Feb-28 20:00 UTC. Time now 2015-Feb-28 23:03 UTC.
Position N 17°00' W 044°11'.

Barometer 1017.4 mb
Water temperature 24.6 ° C

Date/timePositionNaut miles runAvg speedWind from/ knotsBaromVisibWave heightAir tempDewpointWater temp
2015-Feb-28 20:00N 17°00' W 044°11'1 0.5 1017.4 24.6
2015-Feb-28 19:00N 16°60' W 044°11'1 0.6 1017.2 24.6
2015-Feb-28 17:00N 17°01' W 044°11'0 0.0 1017.8 24.7
2015-Feb-28 16:00N 17°01' W 044°11'0 0.1 1018.5 24.7
2015-Feb-28 15:00N 17°01' W 044°11'2 1.0 1019.0 24.6
2015-Feb-28 13:00N 17°02' W 044°10'2 1.5 1019.5 24.6
2015-Feb-28 12:00N 17°04' W 044°10'0 0.0 1019.1 24.6
2015-Feb-28 11:00N 17°04' W 044°10'1 0.4 1018.5 24.6
2015-Feb-28 08:00N 17°05' W 044°10'0 0.1 1016.7 24.6
2015-Feb-28 06:00N 17°05' W 044°10'0 0.0 1016.3 24.6
2015-Feb-28 04:00N 17°05' W 044°10'4 1.3 1016.8 24.6
2015-Feb-28 01:00N 17°07' W 044°06'1 0.9 1017.6 24.6
2015-Feb-28 00:00N 17°06' W 044°07'0 0.0 1017.7 24.6
2015-Feb-27 23:00N 17°06' W 044°07'2 0.9 1017.6 24.6
2015-Feb-27 21:00N 17°07' W 044°05'3 0.5 1016.6 24.7
2015-Feb-27 16:00N 17°07' W 044°02'0 0.2 1017.0 24.7
2015-Feb-27 13:00N 17°06' W 044°02'1 0.5 1018.0 24.6
2015-Feb-27 11:00N 17°06' W 044°02'0 0.0 1017.5 24.6
2015-Feb-27 10:00N 17°06' W 044°02'1 0.3 1017.5 24.6
2015-Feb-27 08:00N 17°05' W 044°01'1 0.7 1016.0 24.6
2015-Feb-27 06:00N 17°05' W 043°59'0 0.0 1016.2 24.6
2015-Feb-27 05:00N 17°05' W 043°59'0 0.0 1016.6 24.6
2015-Feb-27 01:00N 17°05' W 043°59'2 0.3 1018.3 24.7
2015-Feb-26 18:00N 17°04' W 043°58'2 1.1 1017.0 24.8
2015-Feb-26 16:00N 17°02' W 043°57'2 0.6 1018.2 24.7
2015-Feb-26 12:00N 17°00' W 043°59'0 0.0 1019.7 24.6
2015-Feb-26 11:00N 17°00' W 043°59'1 0.2 1019.5 24.6
2015-Feb-26 08:00N 16°59' W 043°59'2 0.8 1018.5 24.6
2015-Feb-26 06:00N 16°58' W 043°59'0 0.0 1018.7 24.6
2015-Feb-26 05:00N 16°58' W 043°59'0 0.0 1018.9 24.6
2015-Feb-26 04:00N 16°58' W 043°59'2 0.3 1019.3 24.6
2015-Feb-25 23:00N 16°57' W 043°58'2 1.9 1019.7 24.7
2015-Feb-25 22:00N 16°56' W 043°59'1 0.6 1019.2 24.7
2015-Feb-25 20:00N 16°56' W 043°58'4 2.1 1018.4 24.8
2015-Feb-25 18:00N 16°54' W 044°02'0 0.0 1018.2 24.8
2015-Feb-25 17:00N 16°54' W 044°02'2 0.3 1019.0 24.8
2015-Feb-25 11:00N 16°53' W 044°04'0 0.2 1019.9 24.6
2015-Feb-25 09:00N 16°54' W 044°04'1 0.3 1019.0 24.6
2015-Feb-25 07:00N 16°54' W 044°05'1 1.2 1017.9 24.6
2015-Feb-25 06:00N 16°55' W 044°04'0 0.0 1018.1 24.6
2015-Feb-25 05:00N 16°55' W 044°04'1 0.7 1018.5 24.6
2015-Feb-25 03:00N 16°54' W 044°05'2 0.6 1019.7 24.6
2015-Feb-25 00:00N 16°53' W 044°06'0 0.0 1020.1 24.7
2015-Feb-24 23:00N 16°53' W 044°06'1 0.2 1019.5 24.7
2015-Feb-24 20:00N 16°52' W 044°07'1 1.0 1017.6 24.8
2015-Feb-24 19:00N 16°52' W 044°06'2 1.6 1017.2 24.8
2015-Feb-24 18:00N 16°52' W 044°07'3 2.5 1017.3 24.8
2015-Feb-24 17:00N 16°50' W 044°09'0 0.0 1017.6 24.8
2015-Feb-24 15:00N 16°50' W 044°09'0 0.0 1019.1 24.7
2015-Feb-24 13:00N 16°50' W 044°09'0 0.3 1019.5 24.7
2015-Feb-24 12:00N 16°50' W 044°10'1 0.5 1019.2 24.6
2015-Feb-24 09:00N 16°50' W 044°11'1 0.5 1017.3 24.6
2015-Feb-24 07:00N 16°51' W 044°11'0 0.0 1016.9 24.6
2015-Feb-24 05:00N 16°51' W 044°11'1 0.6 1017.4 24.6
2015-Feb-24 04:00N 16°52' W 044°11'1 0.5 1017.8 24.6
2015-Feb-24 03:00N 16°51' W 044°11'1 0.3 1018.2 24.6
2015-Feb-24 01:00N 16°52' W 044°11'1 0.7 1018.4 24.6
2015-Feb-23 23:00N 16°51' W 044°12'0 0.0 1017.7 24.7
2015-Feb-23 21:00N 16°51' W 044°12'0 0.3 1016.6 24.7
2015-Feb-23 20:00N 16°51' W 044°12'1 0.2 1016.3 24.7
2015-Feb-23 17:00N 16°51' W 044°13'3 2.6 1016.5 24.7
2015-Feb-23 16:00N 16°48' W 044°14'1 1.3 1017.3 24.7
2015-Feb-23 15:00N 16°50' W 044°14'0 0.0 1017.9 24.7
2015-Feb-23 13:00N 16°50' W 044°14'1 0.7 1018.8 24.6
2015-Feb-23 12:00N 16°50' W 044°15'1 1.1 1018.4 24.6
2015-Feb-23 11:00N 16°51' W 044°14'1 0.5 1018.1 24.6
2015-Feb-23 09:00N 16°51' W 044°16'1 0.3 1017.1 24.6
2015-Feb-23 07:00N 16°51' W 044°15'0 0.0 1016.8 24.6
2015-Feb-23 06:00N 16°51' W 044°15'0 0.4 1016.9 24.6
2015-Feb-23 05:00N 16°51' W 044°15'1 0.6 1017.3 24.6
2015-Feb-23 04:00N 16°51' W 044°15'1 0.2 1017.8 24.6
2015-Feb-23 00:00N 16°52' W 044°15'1 0.7 1018.1 24.6
2015-Feb-22 22:00N 16°51' W 044°17'0 0.0 1017.0 24.7
2015-Feb-22 21:00N 16°51' W 044°17'1 0.9 1016.6 24.7
2015-Feb-22 20:00N 16°50' W 044°16'2 0.6 1016.3 24.7
2015-Feb-22 17:00N 16°51' W 044°17'1 0.5 1016.7 24.7
2015-Feb-22 15:00N 16°52' W 044°17'1 0.4 1018.1 24.6
2015-Feb-22 13:00N 16°52' W 044°16'0 0.0 1018.9 24.6
2015-Feb-22 12:00N 16°52' W 044°16'1 0.4 1018.6 24.6
2015-Feb-22 09:00N 16°53' W 044°15'1 0.3 1017.7 24.5
2015-Feb-22 06:00N 16°54' W 044°16'1 0.6 1017.8 24.6
2015-Feb-22 04:00N 16°53' W 044°16'0 0.0 1018.8 24.6
2015-Feb-22 03:00N 16°53' W 044°16'0 0.0 1019.2 24.6
2015-Feb-22 01:00N 16°53' W 044°16'0 0.0 1019.4 24.6
2015-Feb-22 00:00N 16°53' W 044°16'1 0.1 1019.4 24.6
2015-Feb-21 12:00N 16°53' W 044°15'1 0.4 1020.8 24.6
2015-Feb-21 09:00N 16°54' W 044°14'0 0.2 1019.2 24.6
2015-Feb-21 06:00N 16°54' W 044°15'1 1.3 1019.0 24.6
2015-Feb-21 05:00N 16°55' W 044°14'0 0.1 1019.6 24.6
2015-Feb-20 23:00N 16°55' W 044°14'1 0.1 1020.1 24.7
2015-Feb-20 16:00N 16°55' W 044°13'2 0.5 1019.3 24.7
2015-Feb-20 12:00N 16°56' W 044°12'0 0.1 1020.2 24.6
2015-Feb-20 06:00N 16°56' W 044°11'2 0.2 1017.9 24.6
2015-Feb-19 19:00N 16°58' W 044°09'2 0.8 1016.5 24.7
2015-Feb-19 17:00N 16°59' W 044°08'1 1.1 1017.0 24.8
2015-Feb-19 16:00N 16°60' W 044°07'1 1.1 1017.8 24.7
2015-Feb-19 15:00N 16°59' W 044°08'1 0.6 1018.3 24.7
2015-Feb-19 13:00N 16°60' W 044°07'1 1.0 1018.9 24.7
2015-Feb-19 12:00N 16°60' W 044°06'1 0.3 1018.5 24.7
2015-Feb-19 08:00N 17°00' W 044°05'2 0.4 1016.4 24.6
2015-Feb-19 04:00N 17°01' W 044°03'2 0.6 1018.1 24.7
2015-Feb-19 00:00N 17°03' W 044°02'0 0.0 1018.4 24.7
2015-Feb-18 23:00N 17°03' W 044°02'   1017.9 24.7

Dump ship's entire track history